Time;durP1;ratioP1;P1;durP2;ratioP2;P2;SDS_P1;SDS_P2;PMS_P1;PMS_P2;Temp;Humidity;BMP_temperature;BMP_pressure;BME280_temperature;BME280_humidity;BME280_pressure;Samples;Min_cycle;Max_cycle;Signal;HPM_P1;HPM_P2
2024/04/17 00:02:26;;;;;;;6.38;1.70;;;5.00;99.90;;;;;;5524113;26;20005;-80
2024/04/17 00:04:53;;;;;;;7.80;1.73;;;5.40;99.90;;;;;;5497087;26;20006;-80
2024/04/17 00:07:19;;;;;;;7.10;1.88;;;4.90;99.90;;;;;;5527407;26;20005;-80
2024/04/17 00:09:47;;;;;;;9.20;2.00;;;4.90;99.90;;;;;;5505713;26;20006;-80
2024/04/17 00:12:14;;;;;;;10.30;2.40;;;5.70;99.90;;;;;;5493063;26;20013;-80
2024/04/17 00:14:41;;;;;;;9.63;1.67;;;4.90;99.90;;;;;;5519417;26;20038;-80
2024/04/17 00:17:08;;;;;;;7.85;1.77;;;4.80;99.90;;;;;;5494516;26;20006;-80
2024/04/17 00:19:35;;;;;;;10.25;1.77;;;4.80;99.90;;;;;;5526975;26;20017;-80
2024/04/17 00:22:02;;;;;;;7.60;1.90;;;4.80;99.90;;;;;;5492654;26;20006;-80
2024/04/17 00:24:28;;;;;;;7.93;1.83;;;4.80;99.90;;;;;;5521563;26;20018;-80
2024/04/17 00:26:56;;;;;;;13.90;2.10;;;4.80;99.90;;;;;;5482775;26;20490;-80
2024/04/17 00:29:22;;;;;;;10.75;1.90;;;4.40;99.90;;;;;;5552790;26;20450;-80
2024/04/17 00:31:49;;;;;;;7.10;1.83;;;4.80;99.90;;;;;;5557579;26;20006;-80
2024/04/17 00:34:16;;;;;;;8.73;2.20;;;5.00;99.90;;;;;;5490425;26;20367;-80
2024/04/17 00:36:43;;;;;;;10.98;1.83;;;4.80;99.90;;;;;;5487976;26;20003;-80
2024/04/17 00:39:09;;;;;;;9.15;1.90;;;4.80;99.90;;;;;;5494687;26;20377;-80
2024/04/17 00:41:36;;;;;;;8.00;1.80;;;4.80;99.90;;;;;;5505841;26;20491;-80
2024/04/17 00:44:03;;;;;;;13.50;2.10;;;5.00;99.90;;;;;;5497891;26;20016;-80
2024/04/17 00:46:30;;;;;;;11.60;1.90;;;4.80;99.90;;;;;;5495468;26;20029;-80
2024/04/17 00:48:58;;;;;;;7.05;1.60;;;4.80;99.90;;;;;;5500388;26;20007;-80
2024/04/17 00:51:25;;;;;;;9.60;1.98;;;5.60;99.90;;;;;;5528026;26;20042;-80
2024/04/17 00:53:53;;;;;;;11.70;2.25;;;5.00;99.90;;;;;;5529728;26;20006;-80
2024/04/17 00:56:20;;;;;;;7.32;1.92;;;4.80;99.90;;;;;;5532089;26;20082;-80
2024/04/17 00:58:47;;;;;;;10.10;2.03;;;4.70;99.90;;;;;;5497867;26;20013;-80
2024/04/17 01:01:14;;;;;;;6.85;1.88;;;4.80;99.90;;;;;;5533544;26;20392;-80
2024/04/17 01:03:40;;;;;;;9.63;2.05;;;4.70;99.90;;;;;;5497312;26;20036;-80
2024/04/17 01:06:08;;;;;;;6.22;1.90;;;4.70;99.90;;;;;;5485671;26;20045;-80
2024/04/17 01:08:34;;;;;;;6.20;2.33;;;4.60;99.90;;;;;;5497537;26;20010;-80
2024/04/17 01:11:02;;;;;;;6.03;1.85;;;4.60;99.90;;;;;;5544481;26;20001;-80
2024/04/17 01:13:30;;;;;;;9.40;2.03;;;4.60;99.90;;;;;;5537466;26;20006;-80
2024/04/17 01:15:57;;;;;;;4.95;1.60;;;4.50;99.90;;;;;;5503625;26;20006;-79
2024/04/17 01:18:27;;;;;;;15.18;1.77;;;4.50;99.90;;;;;;5541852;26;20075;-80
2024/04/17 01:20:56;;;;;;;7.82;2.00;;;4.40;99.90;;;;;;5548659;26;20013;-80
2024/04/17 01:23:22;;;;;;;11.57;1.75;;;4.40;99.90;;;;;;5507898;26;20078;-80
2024/04/17 01:25:49;;;;;;;5.82;2.03;;;4.50;99.90;;;;;;5521678;26;20017;-80
2024/04/17 01:28:17;;;;;;;10.23;2.95;;;5.10;99.90;;;;;;5506965;26;20006;-80
2024/04/17 01:30:43;;;;;;;6.32;2.00;;;4.30;99.90;;;;;;5481441;26;20021;-80
2024/04/17 01:33:10;;;;;;;8.02;2.00;;;5.10;99.90;;;;;;5515281;26;20005;-80
2024/04/17 01:35:37;;;;;;;9.23;2.30;;;4.30;99.90;;;;;;5541289;26;20006;-80
2024/04/17 01:38:04;;;;;;;8.75;2.25;;;4.30;99.90;;;;;;5506865;26;20082;-80
2024/04/17 01:40:35;;;;;;;8.13;2.25;;;4.30;99.90;;;;;;5522611;26;20478;-80
2024/04/17 01:43:02;;;;;;;10.75;2.10;;;5.10;99.90;;;;;;5460544;26;20039;-80
2024/04/17 01:45:29;;;;;;;6.57;2.35;;;4.30;99.90;;;;;;5518637;26;20006;-80
2024/04/17 01:47:55;;;;;;;7.25;2.05;;;4.40;99.90;;;;;;5528945;26;20006;-80
2024/04/17 01:50:29;;;;;;;10.65;2.70;;;4.90;99.90;;;;;;5544201;26;20006;-80
2024/04/17 01:52:55;;;;;;;11.80;2.90;;;4.40;99.90;;;;;;5540611;26;20001;-80
2024/04/17 01:55:22;;;;;;;7.15;2.10;;;4.50;99.90;;;;;;5508222;26;20007;-80
2024/04/17 01:57:49;;;;;;;10.23;2.83;;;4.50;99.90;;;;;;5528996;26;20002;-80
2024/04/17 02:00:16;;;;;;;8.90;2.50;;;4.50;99.90;;;;;;5486324;26;20046;-80
2024/04/17 02:02:42;;;;;;;7.45;2.30;;;4.50;99.90;;;;;;5495490;26;20477;-81
2024/04/17 02:05:09;;;;;;;6.78;2.20;;;4.60;99.90;;;;;;5515121;26;20010;-80
2024/04/17 02:07:36;;;;;;;10.82;2.53;;;4.60;99.90;;;;;;5505848;26;20006;-80
2024/04/17 02:10:03;;;;;;;8.63;2.28;;;4.70;99.90;;;;;;5516214;26;20363;-80
2024/04/17 02:12:32;;;;;;;10.52;2.20;;;4.60;99.90;;;;;;5533024;26;20020;-80
2024/04/17 02:15:00;;;;;;;10.48;2.42;;;5.20;99.90;;;;;;5489858;26;20003;-80
2024/04/17 02:17:27;;;;;;;5.88;2.00;;;4.70;99.90;;;;;;5525387;26;20006;-80
2024/04/17 02:19:53;;;;;;;9.90;1.98;;;4.90;99.90;;;;;;5496070;26;20021;-80
2024/04/17 02:22:20;;;;;;;9.95;1.80;;;5.40;99.90;;;;;;5507562;26;20005;-80
2024/04/17 02:24:47;;;;;;;8.50;1.90;;;5.30;99.90;;;;;;5555147;26;20462;-80
2024/04/17 02:27:14;;;;;;;8.05;2.28;;;5.50;99.90;;;;;;5487501;26;20006;-80
2024/04/17 02:29:41;;;;;;;6.18;2.40;;;5.00;99.90;;;;;;5551159;26;20034;-80
2024/04/17 02:32:08;;;;;;;4.70;1.73;;;5.00;99.90;;;;;;5466195;26;20468;-80
2024/04/17 02:34:34;;;;;;;8.50;2.00;;;5.10;99.90;;;;;;5530807;26;20005;-80
2024/04/17 02:37:01;;;;;;;5.88;1.75;;;5.20;99.90;;;;;;5496265;26;20006;-80
2024/04/17 02:39:28;;;;;;;7.20;1.63;;;5.20;99.90;;;;;;5534857;26;20085;-80
2024/04/17 02:41:55;;;;;;;8.30;1.67;;;5.30;99.90;;;;;;5516969;26;20002;-81
2024/04/17 02:44:21;;;;;;;3.92;1.40;;;5.30;99.90;;;;;;5494517;26;20078;-80
2024/04/17 02:46:48;;;;;;;6.07;1.73;;;5.30;99.90;;;;;;5523452;26;20017;-81
2024/04/17 02:49:15;;;;;;;7.13;1.80;;;5.40;99.90;;;;;;5543839;26;20005;-80
2024/04/17 02:51:43;;;;;;;3.70;1.67;;;5.40;99.90;;;;;;5489611;26;20021;-81
2024/04/17 02:54:10;;;;;;;4.65;1.40;;;5.40;99.90;;;;;;5489890;26;20011;-81
2024/04/17 02:56:38;;;;;;;6.85;1.70;;;5.80;99.90;;;;;;5495803;26;20006;-81
2024/04/17 02:59:05;;;;;;;7.43;1.40;;;5.40;99.90;;;;;;5490553;26;20006;-81
2024/04/17 03:01:31;;;;;;;5.38;1.80;;;5.80;99.90;;;;;;5478189;26;20006;-80
2024/04/17 03:03:58;;;;;;;8.30;1.95;;;5.50;99.90;;;;;;5516191;26;20017;-80
2024/04/17 03:06:25;;;;;;;6.00;1.20;;;5.50;99.90;;;;;;5486880;26;20013;-80
2024/04/17 03:09:13;;;;;;;6.30;1.48;;;5.50;99.90;;;;;;5550703;26;20003;-80
2024/04/17 03:11:40;;;;;;;5.68;1.58;;;6.00;99.90;;;;;;5509949;26;20369;-80
2024/04/17 03:14:23;;;;;;;6.65;1.33;;;5.70;99.90;;;;;;5499527;26;20006;-80
2024/04/17 03:16:50;;;;;;;8.23;1.73;;;6.40;99.90;;;;;;5501337;26;20001;-80
2024/04/17 03:19:17;;;;;;;3.47;1.38;;;5.70;99.90;;;;;;5499771;26;20006;-80
2024/04/17 03:21:44;;;;;;;5.25;1.60;;;5.50;99.90;;;;;;5496761;26;20095;-81
2024/04/17 03:24:11;;;;;;;3.40;1.52;;;5.50;99.90;;;;;;5493670;26;20761;-81
2024/04/17 03:26:38;;;;;;;3.72;1.30;;;6.00;99.90;;;;;;5524645;26;20014;-80
2024/04/17 03:29:24;;;;;;;4.38;1.52;;;5.50;99.90;;;;;;5559621;26;20002;-80
2024/04/17 03:31:51;;;;;;;6.32;1.50;;;5.50;99.90;;;;;;5509160;26;20014;-80
2024/04/17 03:34:18;;;;;;;7.40;1.65;;;5.50;99.90;;;;;;5494508;26;20007;-81
2024/04/17 03:36:45;;;;;;;5.38;1.40;;;6.10;99.90;;;;;;5539443;26;20019;-80
2024/04/17 03:39:11;;;;;;;6.65;1.90;;;5.50;99.90;;;;;;5524913;26;20006;-81
2024/04/17 03:41:38;;;;;;;6.40;1.45;;;5.60;99.90;;;;;;5540412;26;20392;-80
2024/04/17 03:44:05;;;;;;;8.68;2.05;;;6.30;99.90;;;;;;5518660;26;20055;-81
2024/04/17 03:46:51;;;;;;;4.47;1.65;;;5.50;99.90;;;;;;5475140;26;20041;-81
2024/04/17 03:49:18;;;;;;;9.77;1.95;;;5.60;99.90;;;;;;5532451;26;20006;-80
2024/04/17 03:51:45;;;;;;;7.55;1.88;;;5.50;99.90;;;;;;5489406;26;20006;-80
2024/04/17 03:54:12;;;;;;;5.35;2.28;;;5.50;99.90;;;;;;5523650;26;20474;-80
2024/04/17 03:56:49;;;;;;;5.10;1.45;;;5.50;99.90;;;;;;5540672;26;20020;-80
2024/04/17 03:59:16;;;;;;;5.57;1.80;;;5.60;99.90;;;;;;5507982;26;20005;-80
2024/04/17 04:01:49;;;;;;;8.27;1.42;;;5.80;99.90;;;;;;5556112;26;20392;-80
2024/04/17 04:04:16;;;;;;;4.50;1.50;;;5.50;99.90;;;;;;5520563;26;20005;-81
2024/04/17 04:07:00;;;;;;;2.78;1.30;;;5.50;99.90;;;;;;5482269;26;20082;-80
2024/04/17 04:09:27;;;;;;;6.13;1.58;;;5.50;99.90;;;;;;5494952;26;20018;-80
2024/04/17 04:11:55;;;;;;;3.95;1.50;;;5.60;99.90;;;;;;5494994;26;20014;-80
2024/04/17 04:14:21;;;;;;;3.97;1.40;;;5.50;99.90;;;;;;5512362;26;20077;-81
2024/04/17 04:16:48;;;;;;;3.88;1.45;;;5.50;99.90;;;;;;5531477;26;20413;-80
2024/04/17 04:19:16;;;;;;;4.75;1.50;;;5.90;99.90;;;;;;5499305;26;20008;-80
2024/04/17 04:21:42;;;;;;;5.40;2.00;;;5.50;99.90;;;;;;5549799;26;20006;-80
2024/04/17 04:24:09;;;;;;;5.07;1.40;;;5.50;99.90;;;;;;5512449;26;20082;-80
2024/04/17 04:26:36;;;;;;;3.78;1.45;;;5.60;99.90;;;;;;5511818;26;20081;-80
2024/04/17 04:29:23;;;;;;;2.92;1.30;;;5.50;99.90;;;;;;5531642;26;20001;-81
2024/04/17 04:31:50;;;;;;;3.65;1.33;;;5.50;99.90;;;;;;5491111;26;20018;-80
2024/04/17 04:34:17;;;;;;;5.40;1.40;;;5.80;99.90;;;;;;5501194;26;20054;-80
2024/04/17 04:36:44;;;;;;;3.08;1.70;;;5.80;99.90;;;;;;5510452;26;20078;-80
2024/04/17 04:39:10;;;;;;;5.75;1.40;;;5.60;99.90;;;;;;5500983;26;20455;-80
2024/04/17 04:41:37;;;;;;;5.50;1.50;;;5.60;99.90;;;;;;5550848;26;20020;-80
2024/04/17 04:44:04;;;;;;;3.42;1.38;;;6.00;99.90;;;;;;5476900;26;20820;-81
2024/04/17 04:46:30;;;;;;;6.00;1.30;;;5.50;99.90;;;;;;5509997;26;20013;-80
2024/04/17 04:48:57;;;;;;;4.93;1.63;;;5.60;99.90;;;;;;5504137;26;20172;-80
2024/04/17 04:51:24;;;;;;;3.33;1.45;;;6.00;99.90;;;;;;5527379;26;20045;-80
2024/04/17 04:53:50;;;;;;;6.18;1.52;;;5.60;99.90;;;;;;5478408;26;20417;-80
2024/04/17 04:56:17;;;;;;;6.82;1.40;;;5.60;99.90;;;;;;5546473;26;20006;-80
2024/04/17 04:58:44;;;;;;;4.97;1.52;;;5.60;99.90;;;;;;5526049;26;20347;-80
2024/04/17 05:01:11;;;;;;;3.30;1.33;;;5.60;99.90;;;;;;5515833;26;20017;-80
2024/04/17 05:03:37;;;;;;;4.90;1.23;;;5.70;99.90;;;;;;5504246;26;20082;-80
2024/04/17 05:06:04;;;;;;;3.35;1.33;;;5.70;99.90;;;;;;5524268;26;20043;-80
2024/04/17 05:08:32;;;;;;;6.97;1.38;;;5.70;99.90;;;;;;5496784;26;20082;-80
2024/04/17 05:10:58;;;;;;;4.32;1.52;;;5.70;99.90;;;;;;5497603;26;20010;-80
2024/04/17 05:13:25;;;;;;;5.13;1.30;;;6.20;99.90;;;;;;5499409;26;20006;-80
2024/04/17 05:15:52;;;;;;;4.32;1.50;;;5.70;99.90;;;;;;5529208;26;20358;-80
2024/04/17 05:18:19;;;;;;;5.78;1.60;;;5.80;99.90;;;;;;5527755;26;20006;-80
2024/04/17 05:20:46;;;;;;;4.20;1.25;;;5.80;99.90;;;;;;5539149;26;20010;-80
2024/04/17 05:23:13;;;;;;;1.88;1.05;;;5.70;99.90;;;;;;5502895;26;20001;-80
2024/04/17 05:25:40;;;;;;;4.18;1.30;;;6.60;99.90;;;;;;5522172;26;20077;-81
2024/04/17 05:28:07;;;;;;;6.78;1.65;;;6.70;99.90;;;;;;5495949;26;20006;-80
2024/04/17 05:30:33;;;;;;;3.80;1.42;;;5.80;99.90;;;;;;5503752;26;20013;-81
2024/04/17 05:33:00;;;;;;;3.42;1.60;;;6.30;99.90;;;;;;5489790;26;20515;-81
2024/04/17 05:35:27;;;;;;;5.45;1.75;;;5.90;99.90;;;;;;5496553;26;20006;-80
2024/04/17 05:37:54;;;;;;;4.53;1.90;;;5.90;99.90;;;;;;5550170;26;20020;-81
2024/04/17 05:40:20;;;;;;;4.60;1.60;;;6.40;99.90;;;;;;5496572;26;20016;-80
2024/04/17 05:42:47;;;;;;;5.50;2.25;;;6.50;99.90;;;;;;5497041;26;20006;-81
2024/04/17 05:45:14;;;;;;;3.38;1.60;;;6.10;99.90;;;;;;5520977;26;20597;-80
2024/04/17 05:47:41;;;;;;;4.53;1.70;;;5.90;99.90;;;;;;5552842;26;20009;-81
2024/04/17 05:50:07;;;;;;;5.07;1.95;;;6.30;99.90;;;;;;5460386;26;20007;-80
2024/04/17 05:52:34;;;;;;;4.00;1.98;;;5.90;99.90;;;;;;5518836;26;20014;-80
2024/04/17 05:55:01;;;;;;;4.43;1.70;;;5.70;99.90;;;;;;5496688;26;20006;-80
2024/04/17 05:57:28;;;;;;;3.33;1.70;;;5.90;99.90;;;;;;5517506;26;20020;-81
2024/04/17 05:59:54;;;;;;;6.38;1.77;;;5.90;99.90;;;;;;5521595;26;20007;-80
2024/04/17 06:02:21;;;;;;;4.38;1.80;;;5.90;99.90;;;;;;5523092;26;20021;-81
2024/04/17 06:04:48;;;;;;;4.25;1.83;;;6.00;99.90;;;;;;5496328;26;20013;-80
2024/04/17 06:07:15;;;;;;;6.60;1.52;;;6.30;99.90;;;;;;5496979;26;20007;-81
2024/04/17 06:09:41;;;;;;;4.03;1.50;;;5.90;99.90;;;;;;5473204;26;20042;-81
2024/04/17 06:12:08;;;;;;;4.35;1.65;;;6.00;99.90;;;;;;5494783;26;20375;-81
2024/04/17 06:14:35;;;;;;;5.30;1.80;;;6.20;99.90;;;;;;5528189;26;20120;-80
2024/04/17 06:17:02;;;;;;;3.08;1.40;;;6.00;99.90;;;;;;5495384;26;20347;-81
2024/04/17 06:19:29;;;;;;;6.88;1.65;;;5.90;99.90;;;;;;5518315;26;20006;-80
2024/04/17 06:21:57;;;;;;;2.20;0.90;;;6.10;99.90;;;;;;5495814;26;20017;-80
2024/04/17 06:24:24;;;;;;;1.95;0.80;;;6.60;99.90;;;;;;5495758;26;20082;-80
2024/04/17 06:26:51;;;;;;;3.85;0.90;;;6.70;99.90;;;;;;5476565;26;20015;-80
2024/04/17 06:29:17;;;;;;;4.95;1.00;;;6.60;99.90;;;;;;5499609;26;20077;-81
2024/04/17 06:31:44;;;;;;;1.95;0.75;;;5.90;99.90;;;;;;5527542;26;20018;-81
2024/04/17 06:34:11;;;;;;;1.75;0.70;;;6.60;99.90;;;;;;5501001;26;20050;-81
2024/04/17 06:36:39;;;;;;;4.13;0.90;;;5.80;99.90;;;;;;5529782;26;20006;-80
2024/04/17 06:39:06;;;;;;;4.57;0.90;;;5.80;99.90;;;;;;5496028;26;20014;-81
2024/04/17 06:41:33;;;;;;;1.48;0.60;;;5.80;99.90;;;;;;5521797;26;20336;-80
2024/04/17 06:44:00;;;;;;;4.80;1.00;;;5.70;99.90;;;;;;5517012;26;20005;-81
2024/04/17 06:46:26;;;;;;;1.77;0.70;;;5.80;99.90;;;;;;5480272;26;20078;-80
2024/04/17 06:48:53;;;;;;;2.85;0.90;;;5.80;99.90;;;;;;5527654;26;20018;-81
2024/04/17 06:51:20;;;;;;;4.32;0.90;;;6.40;99.90;;;;;;5500099;26;20475;-80
2024/04/17 06:53:47;;;;;;;3.70;1.00;;;5.90;99.90;;;;;;5505000;26;20083;-80
2024/04/17 06:56:13;;;;;;;3.35;1.02;;;6.70;99.90;;;;;;5517279;26;20006;-80
2024/04/17 06:58:40;;;;;;;3.03;1.00;;;6.40;99.90;;;;;;5482581;26;20006;-81
2024/04/17 07:01:07;;;;;;;4.70;0.90;;;5.90;99.90;;;;;;5500506;26;20043;-81
2024/04/17 07:03:33;;;;;;;4.07;0.90;;;6.00;99.90;;;;;;5537994;26;20006;-81
2024/04/17 07:06:03;;;;;;;2.97;0.80;;;6.30;99.90;;;;;;5496186;26;20067;-83
2024/04/17 07:08:30;;;;;;;2.50;0.80;;;6.30;99.90;;;;;;5521841;26;20419;-84
2024/04/17 07:10:57;;;;;;;2.95;0.80;;;6.10;99.90;;;;;;5539857;26;20022;-84
2024/04/17 07:13:23;;;;;;;2.17;0.90;;;6.70;99.90;;;;;;5475750;26;20005;-83
2024/04/17 07:15:52;;;;;;;2.70;1.00;;;6.70;99.90;;;;;;5508703;26;20018;-84
2024/04/17 07:18:19;;;;;;;5.55;1.27;;;6.00;99.90;;;;;;5513596;26;20469;-84
2024/04/17 07:20:46;;;;;;;3.05;1.08;;;6.00;99.90;;;;;;5509317;26;20006;-88
2024/04/17 07:23:13;;;;;;;1.80;0.88;;;6.00;99.90;;;;;;5522101;26;20339;-85
2024/04/17 07:25:40;;;;;;;2.30;0.90;;;6.00;99.90;;;;;;5471292;26;20007;-84
2024/04/17 07:28:07;;;;;;;2.78;0.90;;;6.00;99.90;;;;;;5534632;26;20005;-84
2024/04/17 07:30:41;;;;;;;2.15;1.00;;;6.00;99.90;;;;;;5490445;26;20032;-84
2024/04/17 07:33:08;;;;;;;1.67;0.90;;;6.00;99.90;;;;;;5496356;26;20008;-84
2024/04/17 07:35:35;;;;;;;3.40;0.80;;;6.00;99.90;;;;;;5505133;26;20034;-84
2024/04/17 07:38:01;;;;;;;1.40;0.73;;;6.00;99.90;;;;;;5517214;26;20083;-84
2024/04/17 07:40:28;;;;;;;2.65;1.10;;;6.80;99.90;;;;;;5492459;26;20006;-84
2024/04/17 07:42:55;;;;;;;4.15;1.00;;;6.70;99.90;;;;;;5487033;26;20871;-84
2024/04/17 07:45:21;;;;;;;2.08;0.90;;;6.00;99.90;;;;;;5511893;26;20017;-84
2024/04/17 07:47:48;;;;;;;2.70;0.70;;;6.60;99.90;;;;;;5505683;26;20099;-84
2024/04/17 07:50:15;;;;;;;2.22;0.90;;;6.10;99.90;;;;;;5512904;26;20162;-84
2024/04/17 07:52:42;;;;;;;6.15;0.90;;;6.10;99.90;;;;;;5493468;26;20472;-84
2024/04/17 07:55:09;;;;;;;3.83;1.10;;;6.70;99.90;;;;;;5499628;26;20038;-84
2024/04/17 07:57:36;;;;;;;1.65;0.80;;;6.10;99.90;;;;;;5526763;26;20038;-84
2024/04/17 08:00:03;;;;;;;6.35;0.93;;;6.80;99.90;;;;;;5524667;26;20006;-85
2024/04/17 08:02:31;;;;;;;4.65;1.13;;;6.20;99.90;;;;;;5530216;26;20340;-84
2024/04/17 08:04:57;;;;;;;2.38;1.38;;;6.50;99.90;;;;;;5482469;26;20007;-84
2024/04/17 08:07:24;;;;;;;3.58;1.50;;;6.20;99.90;;;;;;5521830;26;20079;-85
2024/04/17 08:09:51;;;;;;;5.38;1.20;;;6.10;99.90;;;;;;5516842;26;20470;-84
2024/04/17 08:12:18;;;;;;;6.50;1.55;;;6.20;99.90;;;;;;5542333;25;20007;-84
2024/04/17 08:14:44;;;;;;;4.93;1.15;;;6.00;99.90;;;;;;5485324;26;20862;-84
2024/04/17 08:17:11;;;;;;;3.65;0.80;;;6.90;99.90;;;;;;5492289;26;20022;-84
2024/04/17 08:19:38;;;;;;;8.40;1.00;;;6.40;99.90;;;;;;5464463;26;20007;-83
2024/04/17 08:22:05;;;;;;;4.00;1.13;;;7.00;99.90;;;;;;5492700;26;20007;-83
2024/04/17 08:24:32;;;;;;;5.38;0.90;;;6.00;99.90;;;;;;5531017;26;20020;-83
2024/04/17 08:26:59;;;;;;;2.17;0.90;;;6.00;99.90;;;;;;5498098;26;20002;-83
2024/04/17 08:29:26;;;;;;;3.75;0.80;;;6.30;99.90;;;;;;5494393;26;20406;-83
2024/04/17 08:31:52;;;;;;;5.57;1.20;;;6.30;99.90;;;;;;5489139;26;20014;-83
2024/04/17 08:34:19;;;;;;;4.72;1.10;;;6.00;99.90;;;;;;5487760;26;20007;-83
2024/04/17 08:36:46;;;;;;;3.80;0.90;;;6.00;99.90;;;;;;5513450;26;20454;-82
2024/04/17 08:39:13;;;;;;;4.43;1.13;;;6.20;99.90;;;;;;5495619;26;20006;-83
2024/04/17 08:41:48;;;;;;;4.57;1.02;;;6.00;99.90;;;;;;5500301;26;20006;-83
2024/04/17 08:44:17;;;;;;;4.85;1.08;;;6.00;99.90;;;;;;5475708;26;20014;-82
2024/04/17 08:46:45;;;;;;;5.07;1.13;;;6.00;99.90;;;;;;5498858;26;20021;-82
2024/04/17 08:49:13;;;;;;;2.22;0.80;;;6.30;99.90;;;;;;5482309;26;20093;-83
2024/04/17 08:51:40;;;;;;;3.58;0.98;;;6.00;99.90;;;;;;5507498;26;20029;-83
2024/04/17 08:54:07;;;;;;;4.40;1.00;;;6.80;99.90;;;;;;5516628;26;20007;-83
2024/04/17 08:56:34;;;;;;;3.65;0.98;;;6.00;99.90;;;;;;5501411;26;20074;-82
2024/04/17 08:59:01;;;;;;;5.90;1.00;;;6.70;99.90;;;;;;5529609;26;20014;-82
2024/04/17 09:01:32;;;;;;;4.00;0.93;;;6.00;99.90;;;;;;5489973;26;20010;-82
2024/04/17 09:04:00;;;;;;;5.28;1.27;;;6.00;99.90;;;;;;5501506;26;20002;-82
2024/04/17 09:06:28;;;;;;;3.78;1.13;;;6.30;99.90;;;;;;5552701;25;20346;-82
2024/04/17 09:09:01;;;;;;;9.20;1.23;;;6.10;99.90;;;;;;5493075;26;20014;-84
2024/04/17 09:11:31;;;;;;;4.65;1.10;;;6.30;99.90;;;;;;5486318;26;20025;-84
2024/04/17 09:13:58;;;;;;;6.50;1.13;;;6.30;99.90;;;;;;5521258;26;20361;-84
2024/04/17 09:16:24;;;;;;;5.53;1.30;;;7.30;99.90;;;;;;5497749;26;20006;-86
2024/04/17 09:18:51;;;;;;;5.20;1.10;;;7.20;99.90;;;;;;5511681;26;20005;-86
2024/04/17 09:21:18;;;;;;;3.28;1.10;;;7.30;99.90;;;;;;5502568;26;20471;-86
2024/04/17 09:23:45;;;;;;;3.78;1.02;;;6.80;99.90;;;;;;5490452;26;20017;-85
2024/04/17 09:26:17;;;;;;;7.82;1.10;;;6.90;99.90;;;;;;5495383;26;20457;-86
2024/04/17 09:28:43;;;;;;;3.58;0.90;;;7.00;99.90;;;;;;5507905;26;20082;-86
2024/04/17 09:31:11;;;;;;;1.63;0.80;;;7.10;99.90;;;;;;5497709;26;20014;-86
2024/04/17 09:33:47;;;;;;;3.95;0.90;;;7.20;99.90;;;;;;5534879;26;20006;-86
2024/04/17 09:36:14;;;;;;;4.63;1.00;;;7.10;99.90;;;;;;5482307;26;20007;-86
2024/04/17 09:38:41;;;;;;;3.25;0.90;;;7.40;99.90;;;;;;5513986;26;20080;-87
2024/04/17 09:41:11;;;;;;;4.07;0.85;;;7.60;99.90;;;;;;5497359;26;20017;-87
2024/04/17 09:43:42;;;;;;;3.45;0.82;;;7.80;99.90;;;;;;5497494;26;20006;-86
2024/04/17 09:46:09;;;;;;;3.05;0.90;;;7.40;99.90;;;;;;5548751;26;20085;-86
2024/04/17 09:48:37;;;;;;;4.35;0.90;;;8.10;99.90;;;;;;5507684;26;20013;-86
2024/04/17 09:51:05;;;;;;;6.20;1.15;;;7.40;99.90;;;;;;5536509;26;20069;-86
2024/04/17 09:53:33;;;;;;;7.63;1.00;;;7.40;99.90;;;;;;5528607;26;20017;-86
2024/04/17 09:56:02;;;;;;;4.40;1.08;;;8.10;99.90;;;;;;5496861;26;20006;-86
2024/04/17 09:58:32;;;;;;;3.03;1.10;;;8.20;99.90;;;;;;5496779;26;20020;-85
2024/04/17 10:01:03;;;;;;;2.75;0.93;;;7.60;99.90;;;;;;5527055;26;20021;-89
2024/04/17 10:03:32;;;;;;;7.63;1.20;;;7.50;99.90;;;;;;5494055;26;20475;-86
2024/04/17 10:06:03;;;;;;;5.28;1.30;;;7.60;99.90;;;;;;5479791;26;20022;-85
2024/04/17 10:08:31;;;;;;;6.57;1.10;;;7.50;99.90;;;;;;5505463;26;20014;-84
2024/04/17 10:10:58;;;;;;;6.47;1.48;;;7.60;99.90;;;;;;5491161;26;20029;-84
2024/04/17 10:13:26;;;;;;;3.58;1.10;;;8.10;99.90;;;;;;5504623;26;20082;-84
2024/04/17 10:15:53;;;;;;;7.03;1.23;;;7.60;99.90;;;;;;5495024;26;20020;-84
2024/04/17 10:18:21;;;;;;;4.60;1.38;;;7.70;99.90;;;;;;5520918;26;20006;-84
2024/04/17 10:20:48;;;;;;;5.55;1.15;;;7.80;99.90;;;;;;5492981;26;20042;-84
2024/04/17 10:23:16;;;;;;;4.47;1.27;;;7.80;99.90;;;;;;5501236;26;20006;-84
2024/04/17 10:25:57;;;;;;;5.97;1.23;;;7.80;99.90;;;;;;5450440;26;20007;-84
2024/04/17 10:28:26;;;;;;;7.93;1.45;;;7.80;99.90;;;;;;5473668;26;20464;-84
2024/04/17 10:30:58;;;;;;;6.63;1.48;;;7.90;99.90;;;;;;5488594;26;20007;-84
2024/04/17 10:33:28;;;;;;;4.93;1.33;;;8.00;99.90;;;;;;5527443;26;20523;-84
2024/04/17 10:35:56;;;;;;;8.20;1.60;;;8.10;99.90;;;;;;5476266;26;20487;-84
2024/04/17 10:38:25;;;;;;;7.93;1.55;;;8.30;99.90;;;;;;5489152;26;20034;-84
2024/04/17 10:40:56;;;;;;;9.90;1.65;;;8.40;99.90;;;;;;5494550;26;20055;-84
2024/04/17 10:43:23;;;;;;;12.10;1.58;;;8.50;99.90;;;;;;5496265;26;20429;-84
2024/04/17 10:46:10;;;;;;;4.25;1.02;;;8.50;99.90;;;;;;5510339;26;20450;-84
2024/04/17 10:48:46;;;;;;;;;;;8.60;99.90;;;;;;5529963;26;20005;-84
2024/04/17 10:51:14;;;;;;;10.00;1.90;;;8.70;99.90;;;;;;5532844;26;19931;-84
2024/04/17 10:53:46;;;;;;;7.85;1.35;;;8.80;99.90;;;;;;5482489;26;19998;-82
2024/04/17 10:56:16;;;;;;;8.15;1.38;;;8.90;99.90;;;;;;5437750;26;20006;-82
2024/04/17 10:58:43;;;;;;;6.20;1.42;;;8.90;99.90;;;;;;5530188;26;20005;-82
2024/04/17 11:01:13;;;;;;;5.38;1.27;;;8.90;99.90;;;;;;5489129;26;20412;-82
2024/04/17 11:03:40;;;;;;;9.43;1.65;;;9.00;99.90;;;;;;5562112;26;20020;-83
2024/04/17 11:06:08;;;;;;;5.28;1.08;;;8.90;99.90;;;;;;5516940;25;20006;-83
2024/04/17 11:08:41;;;;;;;4.07;0.93;;;8.90;99.90;;;;;;5523981;26;20022;-84
2024/04/17 11:11:10;;;;;;;6.88;1.40;;;8.90;99.90;;;;;;5469606;26;20018;-84
2024/04/17 11:13:43;;;;;;;8.77;1.50;;;8.80;99.90;;;;;;5471608;26;20009;-84
2024/04/17 11:16:11;;;;;;;7.05;1.40;;;8.90;99.90;;;;;;5518152;26;20821;-84
2024/04/17 11:18:38;;;;;;;5.60;1.13;;;9.60;99.90;;;;;;5520933;26;20082;-84
2024/04/17 11:21:05;;;;;;;6.53;1.65;;;8.90;99.90;;;;;;5513112;26;20043;-84
2024/04/17 11:23:42;;;;;;;7.57;1.30;;;9.40;99.90;;;;;;5524260;26;20006;-85
2024/04/17 11:26:10;;;;;;;6.43;1.17;;;9.10;99.90;;;;;;5497505;26;20017;-84
2024/04/17 11:28:42;;;;;;;7.75;1.05;;;9.10;99.90;;;;;;5494782;26;20002;-84
2024/04/17 11:31:11;;;;;;;6.57;1.23;;;9.30;99.90;;;;;;5521275;26;20006;-84
2024/04/17 11:33:38;;;;;;;7.22;1.15;;;9.20;99.90;;;;;;5505310;26;20006;-84
2024/04/17 11:36:07;;;;;;;5.93;1.30;;;9.00;99.90;;;;;;5494960;26;20006;-84
2024/04/17 11:38:35;;;;;;;5.63;1.23;;;9.30;99.90;;;;;;5536226;26;20019;-84
2024/04/17 11:41:02;;;;;;;8.57;1.38;;;9.40;99.90;;;;;;5479888;26;20006;-84
2024/04/17 11:43:29;;;;;;;7.32;1.10;;;9.40;99.90;;;;;;5550926;26;20020;-84
2024/04/17 11:45:56;;;;;;;4.25;1.23;;;9.70;99.90;;;;;;5551760;26;20034;-84
2024/04/17 11:48:23;;;;;;;8.50;1.27;;;9.50;99.90;;;;;;5494445;26;20006;-84
2024/04/17 11:50:50;;;;;;;5.35;1.27;;;9.50;99.90;;;;;;5498987;26;20018;-85
2024/04/17 11:53:17;;;;;;;9.73;1.27;;;9.70;99.90;;;;;;5482578;26;20018;-85
2024/04/17 11:55:43;;;;;;;5.13;0.90;;;9.80;99.90;;;;;;5471138;26;20363;-84
2024/04/17 11:58:10;;;;;;;3.42;0.98;;;10.50;99.90;;;;;;5511589;25;20478;-84
2024/04/17 12:00:38;;;;;;;5.07;1.15;;;9.90;99.90;;;;;;5491999;26;20359;-84
2024/04/17 12:03:05;;;;;;;6.40;1.00;;;10.00;99.90;;;;;;5521883;26;20006;-85
2024/04/17 12:05:32;;;;;;;5.55;1.35;;;10.00;99.90;;;;;;5523608;26;20005;-84
2024/04/17 12:07:59;;;;;;;5.03;0.93;;;10.20;99.90;;;;;;5487935;26;20021;-84
2024/04/17 12:10:25;;;;;;;6.30;1.15;;;10.70;99.90;;;;;;5472745;26;20007;-84
2024/04/17 12:12:53;;;;;;;8.63;1.20;;;10.40;99.90;;;;;;5543056;26;20006;-84
2024/04/17 12:15:20;;;;;;;5.25;1.10;;;10.50;99.90;;;;;;5511826;26;20025;-85
2024/04/17 12:17:47;;;;;;;3.38;1.02;;;10.60;99.90;;;;;;5494365;26;20006;-84
2024/04/17 12:20:13;;;;;;;4.32;1.08;;;10.70;99.90;;;;;;5541640;25;20007;-84
2024/04/17 12:22:40;;;;;;;4.25;1.00;;;10.70;99.90;;;;;;5492497;26;20014;-85
2024/04/17 12:27:52;;;;;;;2.75;0.80;;;10.70;99.90;;;;;;5515602;26;20021;-84
2024/04/17 12:30:20;;;;;;;12.90;0.90;;;10.70;99.90;;;;;;5513821;26;20817;-85
2024/04/17 12:32:47;;;;;;;3.40;0.90;;;10.70;99.90;;;;;;5470850;26;20055;-85
2024/04/17 12:35:13;;;;;;;5.50;0.80;;;10.80;99.90;;;;;;5490170;26;20039;-85
2024/04/17 12:37:40;;;;;;;4.72;1.20;;;10.80;99.90;;;;;;5505846;26;20017;-85
2024/04/17 12:40:08;;;;;;;6.25;1.17;;;10.80;99.90;;;;;;5470783;26;20021;-84
2024/04/17 12:42:34;;;;;;;4.85;0.90;;;10.90;99.90;;;;;;5513660;26;20006;-83
2024/04/17 12:45:01;;;;;;;3.63;1.00;;;11.00;99.90;;;;;;5478691;26;20079;-84
2024/04/17 12:47:28;;;;;;;4.95;1.00;;;11.00;99.90;;;;;;5539444;26;20051;-84
2024/04/17 12:49:55;;;;;;;5.72;1.00;;;11.10;99.90;;;;;;5492400;26;20384;-85
2024/04/17 12:52:22;;;;;;;4.85;0.90;;;11.10;99.90;;;;;;5487726;26;20062;-86
2024/04/17 12:54:51;;;;;;;8.40;0.80;;;11.10;99.90;;;;;;5554228;25;20096;-86
2024/04/17 12:57:18;;;;;;;4.10;0.80;;;11.20;99.90;;;;;;5467617;26;20007;-85
2024/04/17 12:59:46;;;;;;;3.65;0.82;;;11.20;99.90;;;;;;5493180;26;20007;-85
2024/04/17 13:02:13;;;;;;;5.43;0.93;;;11.10;99.90;;;;;;5474089;26;20337;-85